Time;durP1;ratioP1;P1;durP2;ratioP2;P2;SDS_P1;SDS_P2;PMS_P1;PMS_P2;Temp;Humidity;BMP_temperature;BMP_pressure;BME280_temperature;BME280_humidity;BME280_pressure;Samples;Min_cycle;Max_cycle;Signal;HPM_P1;HPM_P2
2023/11/18 00:01:50;;;;;;;;;;;15.20;80.60;;;;;;4044420;29;19935;-47
2023/11/18 00:04:31;;;;;;;;;;;15.30;80.20;;;;;;4044289;29;19934;-51
2023/11/18 00:07:14;;;;;;;;;;;15.40;79.80;;;;;;4043126;29;19934;-52
2023/11/18 00:09:55;;;;;;;;;;;15.40;79.40;;;;;;4043929;29;19986;-48
2023/11/18 00:12:36;;;;;;;;;;;15.40;79.20;;;;;;4044221;29;20490;-47
2023/11/18 00:15:17;;;;;;;;;;;15.40;80.00;;;;;;4043723;29;19986;-49
2023/11/18 00:17:58;;;;;;;;;;;15.40;79.10;;;;;;4044028;29;19939;-47
2023/11/18 00:20:39;;;;;;;;;;;15.40;79.20;;;;;;4043489;29;19935;-48
2023/11/18 00:23:21;;;;;;;;;;;15.30;79.20;;;;;;4027793;29;20019;-47
2023/11/18 00:26:03;;;;;;;;;;;15.30;79.30;;;;;;4028193;29;19935;-48
2023/11/18 00:28:43;;;;;;;;;;;15.30;79.60;;;;;;4028111;29;19951;-48
2023/11/18 00:31:24;;;;;;;;;;;15.30;80.00;;;;;;4016737;29;19955;-47
2023/11/18 00:34:06;;;;;;;;;;;15.30;79.80;;;;;;4016475;29;19935;-47
2023/11/18 00:36:47;;;;;;;;;;;15.40;79.40;;;;;;4016316;29;19935;-47
2023/11/18 00:39:28;;;;;;;;;;;15.50;78.90;;;;;;4029346;29;20667;-47
2023/11/18 00:42:10;;;;;;;;;;;15.50;79.50;;;;;;4016784;29;20667;-48
2023/11/18 00:44:51;;;;;;;;;;;15.50;78.40;;;;;;4016825;29;19938;-47
2023/11/18 00:47:32;;;;;;;;;;;15.50;78.30;;;;;;4027786;29;19939;-50
2023/11/18 00:50:13;;;;;;;;;;;15.50;78.60;;;;;;4027545;29;19935;-53
2023/11/18 00:52:54;;;;;;;;;;;15.50;78.60;;;;;;4028360;29;19935;-48
2023/11/18 00:55:36;;;;;;;;;;;15.50;78.50;;;;;;4027869;29;19990;-48
2023/11/18 00:58:17;;;;;;;;;;;15.50;79.30;;;;;;4026008;29;20387;-52
2023/11/18 01:00:58;;;;;;;;;;;15.50;78.60;;;;;;4028179;29;19935;-51
2023/11/18 01:03:39;;;;;;;;;;;15.50;78.70;;;;;;4016332;29;19938;-51
2023/11/18 01:06:21;;;;;;;;;;;15.50;79.50;;;;;;4030402;29;19990;-52
2023/11/18 01:09:03;;;;;;;;;;;15.50;78.40;;;;;;4031372;29;20279;-51
2023/11/18 01:11:45;;;;;;;;;;;15.50;78.60;;;;;;4031652;29;20387;-53
2023/11/18 01:14:46;;;;;;;;;;;15.50;78.50;;;;;;4035462;29;20489;-51
2023/11/18 01:17:27;;;;;;;;;;;15.50;78.30;;;;;;4016054;29;19935;-52
2023/11/18 01:20:11;;;;;;;;;;;15.60;79.00;;;;;;4018802;29;20288;-51
2023/11/18 01:22:52;;;;;;;;;;;15.50;78.10;;;;;;4028357;29;20283;-52
2023/11/18 01:25:32;;;;;;;;;;;15.50;78.20;;;;;;4027701;29;19954;-52
2023/11/18 01:28:15;;;;;;;;;;;15.50;78.40;;;;;;4028031;29;19983;-53
2023/11/18 01:30:56;;;;;;;;;;;15.50;78.30;;;;;;4027562;29;19935;-52
2023/11/18 01:33:39;;;;;;;;;;;15.60;78.40;;;;;;4021340;29;19950;-54
2023/11/18 01:36:20;;;;;;;;;;;15.50;78.40;;;;;;4011247;29;19983;-52
2023/11/18 01:39:01;;;;;;;;;;;15.40;78.50;;;;;;4012210;29;19936;-55
2023/11/18 01:41:42;;;;;;;;;;;15.30;78.70;;;;;;4012823;29;20478;-53
2023/11/18 01:44:24;;;;;;;;;;;15.30;79.30;;;;;;4011601;29;19935;-51
2023/11/18 01:47:06;;;;;;;;;;;15.30;79.50;;;;;;4011686;29;19935;-50
2023/11/18 01:49:46;;;;;;;;;;;15.40;79.30;;;;;;4016750;29;20068;-53
2023/11/18 01:52:29;;;;;;;;;;;15.40;78.90;;;;;;4026653;29;20394;-52
2023/11/18 01:55:12;;;;;;;;;;;15.50;78.90;;;;;;4027470;29;19934;-48
2023/11/18 01:57:55;;;;;;;;;;;15.50;78.60;;;;;;4021992;29;20351;-50
2023/11/18 02:00:38;;;;;;;;;;;15.60;78.30;;;;;;4011225;29;20304;-50
2023/11/18 02:03:20;;;;;;;;;;;15.60;78.00;;;;;;4012718;29;19984;-50
2023/11/18 02:06:01;;;;;;;;;;;15.60;77.80;;;;;;4011176;29;20076;-51
2023/11/18 02:08:42;;;;;;;;;;;15.60;78.00;;;;;;4026809;29;19939;-49
2023/11/18 02:11:43;;;;;;;;;;;15.50;78.10;;;;;;4027057;29;19938;-52
2023/11/18 02:14:27;;;;;;;;;;;15.50;78.40;;;;;;4019728;29;20072;-51
2023/11/18 02:17:10;;;;;;;;;;;15.40;78.70;;;;;;4012441;29;19939;-53
2023/11/18 02:19:51;;;;;;;;;;;15.50;79.00;;;;;;4011329;29;20007;-51
2023/11/18 02:22:32;;;;;;;;;;;15.50;78.70;;;;;;4012074;29;20386;-52
2023/11/18 02:25:16;;;;;;;;;;;15.60;79.30;;;;;;4019123;29;19934;-52
2023/11/18 02:27:58;;;;;;;;;;;15.60;78.20;;;;;;4026250;29;19935;-52
2023/11/18 02:30:39;;;;;;;;;;;15.60;78.20;;;;;;4026285;29;19938;-54
2023/11/18 02:33:23;;;;;;;;;;;15.60;78.20;;;;;;4031013;29;20792;-51
2023/11/18 02:36:08;;;;;;;;;;;15.70;77.90;;;;;;4031089;29;19939;-52
2023/11/18 02:38:51;;;;;;;;;;;15.70;77.80;;;;;;4042607;29;19959;-49
2023/11/18 02:41:31;;;;;;;;;;;15.70;77.70;;;;;;4030705;29;20071;-52
2023/11/18 02:44:17;;;;;;;;;;;15.70;77.80;;;;;;4015623;29;20300;-51
2023/11/18 02:46:58;;;;;;;;;;;15.70;78.90;;;;;;4015550;29;19959;-48
2023/11/18 02:49:40;;;;;;;;;;;15.70;77.80;;;;;;4016245;29;20380;-48
2023/11/18 02:52:21;;;;;;;;;;;15.80;77.50;;;;;;4015377;29;19938;-49
2023/11/18 02:55:02;;;;;;;;;;;15.80;77.40;;;;;;4027055;29;19939;-48
2023/11/18 02:57:43;;;;;;;;;;;15.80;77.40;;;;;;4015512;29;19935;-48
2023/11/18 03:00:26;;;;;;;;;;;15.70;78.30;;;;;;4026776;29;19979;-48
2023/11/18 03:03:06;;;;;;;;;;;15.70;77.50;;;;;;4042586;29;20421;-48
2023/11/18 03:05:48;;;;;;;;;;;15.70;77.40;;;;;;4031176;29;20443;-48
2023/11/18 03:08:29;;;;;;;;;;;15.70;78.10;;;;;;4042600;29;19939;-48
2023/11/18 03:11:11;;;;;;;;;;;15.70;77.10;;;;;;4027928;29;19938;-50
2023/11/18 03:13:53;;;;;;;;;;;15.60;77.10;;;;;;4015323;29;19939;-48
2023/11/18 03:16:35;;;;;;;;;;;15.70;77.10;;;;;;4015087;29;19964;-49
2023/11/18 03:19:15;;;;;;;;;;;15.70;76.90;;;;;;4026669;29;19955;-49
2023/11/18 03:21:56;;;;;;;;;;;15.70;76.70;;;;;;4026320;29;20402;-52
2023/11/18 03:24:37;;;;;;;;;;;15.70;76.90;;;;;;4024203;29;19935;-50
2023/11/18 03:27:18;;;;;;;;;;;15.70;76.70;;;;;;4043076;29;19939;-49
2023/11/18 03:29:59;;;;;;;;;;;15.70;76.80;;;;;;4032786;29;20402;-51
2023/11/18 03:32:41;;;;;;;;;;;15.70;77.00;;;;;;4044354;29;19978;-50
2023/11/18 03:35:23;;;;;;;;;;;15.70;76.50;;;;;;4042071;29;19951;-53
2023/11/18 03:38:04;;;;;;;;;;;15.70;76.60;;;;;;4032178;29;19934;-52
2023/11/18 03:40:46;;;;;;;;;;;15.70;76.70;;;;;;4043175;29;20295;-51
2023/11/18 03:43:27;;;;;;;;;;;15.60;76.90;;;;;;4044526;29;19934;-49
2023/11/18 03:46:08;;;;;;;;;;;15.60;77.40;;;;;;4033407;29;19990;-48
2023/11/18 03:48:50;;;;;;;;;;;15.60;77.50;;;;;;4021978;29;19943;-52
2023/11/18 03:51:31;;;;;;;;;;;15.60;77.20;;;;;;4029133;29;19963;-50
2023/11/18 03:54:12;;;;;;;;;;;15.70;76.70;;;;;;4017304;29;19939;-52
2023/11/18 03:56:54;;;;;;;;;;;15.70;76.70;;;;;;4032768;29;19938;-50
2023/11/18 03:59:34;;;;;;;;;;;15.60;76.50;;;;;;4044066;29;19938;-49
2023/11/18 04:02:15;;;;;;;;;;;15.60;76.70;;;;;;4043940;29;20283;-47
2023/11/18 04:04:57;;;;;;;;;;;15.60;76.70;;;;;;4044472;29;19939;-48
2023/11/18 04:07:41;;;;;;;;;;;15.60;76.70;;;;;;4032666;29;20403;-47
2023/11/18 04:10:22;;;;;;;;;;;15.70;76.80;;;;;;4021316;29;19935;-48
2023/11/18 04:13:03;;;;;;;;;;;15.70;76.70;;;;;;4028846;29;20300;-49
2023/11/18 04:15:45;;;;;;;;;;;15.70;76.50;;;;;;4028833;29;19938;-47
2023/11/18 04:18:26;;;;;;;;;;;15.60;76.30;;;;;;4016993;29;19939;-47
2023/11/18 04:21:09;;;;;;;;;;;15.60;76.70;;;;;;4028958;29;20388;-47
2023/11/18 04:23:49;;;;;;;;;;;15.60;76.80;;;;;;4017215;29;19935;-46
2023/11/18 04:26:30;;;;;;;;;;;15.50;77.20;;;;;;4029167;29;19934;-48
2023/11/18 04:29:11;;;;;;;;;;;15.50;77.20;;;;;;4027615;29;20414;-47
2023/11/18 04:31:53;;;;;;;;;;;15.50;76.90;;;;;;4028634;29;20007;-50
2023/11/18 04:34:36;;;;;;;;;;;15.50;76.60;;;;;;4028181;29;19983;-46
2023/11/18 04:37:18;;;;;;;;;;;15.60;76.80;;;;;;4028597;29;19998;-47
2023/11/18 04:40:00;;;;;;;;;;;15.50;76.90;;;;;;4027524;29;25654;-47
2023/11/18 04:42:41;;;;;;;;;;;15.50;77.00;;;;;;4029061;29;20500;-50
2023/11/18 04:45:24;;;;;;;;;;;15.50;77.30;;;;;;4016841;29;20291;-47
2023/11/18 04:48:05;;;;;;;;;;;15.40;77.50;;;;;;4028921;29;19939;-47
2023/11/18 04:50:46;;;;;;;;;;;15.40;77.80;;;;;;4032641;29;20398;-49
2023/11/18 04:53:29;;;;;;;;;;;15.50;78.00;;;;;;4044727;29;20063;-46
2023/11/18 04:56:10;;;;;;;;;;;15.50;77.20;;;;;;4031501;29;20459;-47
2023/11/18 04:58:51;;;;;;;;;;;15.60;77.20;;;;;;4029889;29;19959;-47
2023/11/18 05:01:32;;;;;;;;;;;15.50;77.20;;;;;;4043937;29;20126;-51
2023/11/18 05:04:12;;;;;;;;;;;15.50;77.40;;;;;;4043532;29;19950;-48
2023/11/18 05:06:53;;;;;;;;;;;15.40;76.10;;;;;;4043352;29;19939;-51
2023/11/18 05:09:35;;;;;;;;;;;15.30;76.70;;;;;;4043451;29;19935;-49
2023/11/18 05:12:16;;;;;;;;;;;15.30;77.10;;;;;;4043986;29;20390;-47
2023/11/18 05:14:57;;;;;;;;;;;15.20;77.40;;;;;;4030979;29;20403;-48
2023/11/18 05:17:38;;;;;;;;;;;15.10;78.50;;;;;;4019818;29;19983;-48
2023/11/18 05:20:19;;;;;;;;;;;15.00;78.00;;;;;;4016883;29;19939;-48
2023/11/18 05:23:00;;;;;;;;;;;15.00;78.40;;;;;;4016475;29;19938;-48
2023/11/18 05:25:43;;;;;;;;;;;14.90;78.50;;;;;;4028268;29;19935;-47
2023/11/18 05:28:24;;;;;;;;;;;14.90;78.70;;;;;;4028661;29;19939;-47
2023/11/18 05:31:06;;;;;;;;;;;14.90;79.00;;;;;;4029178;29;19951;-47
2023/11/18 05:33:51;;;;;;;;;;;15.00;79.90;;;;;;4027898;29;19951;-47
2023/11/18 05:36:37;;;;;;;;;;;15.00;79.00;;;;;;4027585;29;19963;-48
2023/11/18 05:39:20;;;;;;;;;;;15.00;78.90;;;;;;4029516;29;20060;-46
2023/11/18 05:42:02;;;;;;;;;;;14.90;79.00;;;;;;4043227;29;19962;-48
2023/11/18 05:44:43;;;;;;;;;;;14.90;79.30;;;;;;4043180;29;20391;-49
2023/11/18 05:47:23;;;;;;;;;;;14.80;79.60;;;;;;4030216;29;20490;-49
2023/11/18 05:50:05;;;;;;;;;;;14.80;80.10;;;;;;4038014;29;19934;-48
2023/11/18 05:52:46;;;;;;;;;;;14.90;80.20;;;;;;4027842;29;19938;-47
2023/11/18 05:55:27;;;;;;;;;;;15.00;80.10;;;;;;4027634;29;19935;-47
2023/11/18 05:58:09;;;;;;;;;;;15.10;79.60;;;;;;4027783;29;20030;-49
2023/11/18 06:00:50;;;;;;;;;;;15.30;79.30;;;;;;4028098;29;19934;-47
2023/11/18 06:03:31;;;;;;;;;;;15.40;78.60;;;;;;4027890;29;19934;-48
2023/11/18 06:06:12;;;;;;;;;;;15.50;78.10;;;;;;4015713;29;19939;-48
2023/11/18 06:08:54;;;;;;;;;;;15.60;77.90;;;;;;4031854;29;19974;-49
2023/11/18 06:11:35;;;;;;;;;;;15.70;77.70;;;;;;4042953;29;19986;-51
2023/11/18 06:14:17;;;;;;;;;;;15.70;77.30;;;;;;4043026;29;19998;-50
2023/11/18 06:17:00;;;;;;;;;;;15.70;76.70;;;;;;4029399;29;19935;-47
2023/11/18 06:19:41;;;;;;;;;;;15.80;76.80;;;;;;4026855;29;19938;-49
2023/11/18 06:22:22;;;;;;;;;;;15.80;76.70;;;;;;4027751;29;19938;-47
2023/11/18 06:25:07;;;;;;;;;;;15.80;76.70;;;;;;4027045;29;19935;-47
2023/11/18 06:27:50;;;;;;;;;;;15.80;76.80;;;;;;4027129;29;20019;-47
2023/11/18 06:30:32;;;;;;;;;;;15.80;76.80;;;;;;4029186;29;20062;-47
2023/11/18 06:33:12;;;;;;;;;;;15.80;76.80;;;;;;4029255;29;19934;-47
2023/11/18 06:35:54;;;;;;;;;;;15.80;76.70;;;;;;4013157;29;19939;-47
2023/11/18 06:38:35;;;;;;;;;;;15.80;76.80;;;;;;4019519;29;19938;-49
2023/11/18 06:41:16;;;;;;;;;;;15.80;76.80;;;;;;4026601;29;19981;-46
2023/11/18 06:44:00;;;;;;;;;;;15.80;76.80;;;;;;4026839;29;19935;-47
2023/11/18 06:46:42;;;;;;;;;;;15.70;77.00;;;;;;4015405;29;19944;-46
2023/11/18 06:49:25;;;;;;;;;;;15.60;76.70;;;;;;4037037;29;19950;-48
2023/11/18 06:52:06;;;;;;;;;;;15.60;77.20;;;;;;4036292;29;20394;-52
2023/11/18 06:54:49;;;;;;;;;;;15.50;77.50;;;;;;4041467;29;20072;-51
2023/11/18 06:57:30;;;;;;;;;;;15.50;77.80;;;;;;4042281;29;19979;-47
2023/11/18 07:00:15;;;;;;;;;;;15.50;78.00;;;;;;4042050;29;20347;-53
2023/11/18 07:02:57;;;;;;;;;;;15.40;78.70;;;;;;4032650;29;19938;-55
2023/11/18 07:05:39;;;;;;;;;;;15.40;77.90;;;;;;4032074;29;19935;-52
2023/11/18 07:08:20;;;;;;;;;;;15.40;78.30;;;;;;4043644;29;19934;-52
2023/11/18 07:11:01;;;;;;;;;;;15.40;78.60;;;;;;4034547;29;20398;-48
2023/11/18 07:13:42;;;;;;;;;;;15.50;78.40;;;;;;4047473;29;19934;-49
2023/11/18 07:16:24;;;;;;;;;;;15.60;78.10;;;;;;4047534;29;19934;-53
2023/11/18 07:19:06;;;;;;;;;;;15.70;77.80;;;;;;4035418;29;19938;-52
2023/11/18 07:21:46;;;;;;;;;;;15.80;77.70;;;;;;4046390;29;19934;-52
2023/11/18 07:24:29;;;;;;;;;;;15.90;77.40;;;;;;4047290;29;20066;-51
2023/11/18 07:27:11;;;;;;;;;;;16.00;76.90;;;;;;4046519;29;19935;-51
2023/11/18 07:29:52;;;;;;;;;;;16.10;76.60;;;;;;4047073;29;19986;-53
2023/11/18 07:32:33;;;;;;;;;;;16.10;75.80;;;;;;4046778;29;19983;-53
2023/11/18 07:35:17;;;;;;;;;;;16.10;74.80;;;;;;4047437;29;19955;-49
2023/11/18 07:37:59;;;;;;;;;;;16.10;74.20;;;;;;4031028;29;20332;-53
2023/11/18 07:40:42;;;;;;;;;;;16.10;74.30;;;;;;4032057;29;19934;-52
2023/11/18 07:43:22;;;;;;;;;;;16.10;74.40;;;;;;4032209;29;19935;-53
2023/11/18 07:46:05;;;;;;;;;;;16.10;74.80;;;;;;4031772;29;19938;-50
2023/11/18 07:48:46;;;;;;;;;;;16.10;75.40;;;;;;4032633;29;20092;-54
2023/11/18 07:51:28;;;;;;;;;;;16.20;75.60;;;;;;4032218;29;19934;-52
2023/11/18 07:54:10;;;;;;;;;;;16.20;75.30;;;;;;4020382;29;20397;-51
2023/11/18 07:56:52;;;;;;;;;;;16.30;75.20;;;;;;4047138;29;19938;-50
2023/11/18 07:59:32;;;;;;;;;;;16.30;75.10;;;;;;4040850;29;20059;-50
2023/11/18 08:02:14;;;;;;;;;;;16.30;75.20;;;;;;4032673;29;20419;-49
2023/11/18 08:04:56;;;;;;;;;;;16.20;75.40;;;;;;4047131;29;19937;-49
2023/11/18 08:07:39;;;;;;;;;;;16.20;75.50;;;;;;4035203;29;19994;-49
2023/11/18 08:10:21;;;;;;;;;;;16.10;76.80;;;;;;4046993;29;19939;-50
2023/11/18 08:13:03;;;;;;;;;;;16.10;76.30;;;;;;4032842;29;19994;-50
2023/11/18 08:15:45;;;;;;;;;;;16.10;76.60;;;;;;4041356;29;19954;-50
2023/11/18 08:18:27;;;;;;;;;;;16.10;76.80;;;;;;4043878;29;19935;-52
2023/11/18 08:21:08;;;;;;;;;;;16.00;77.10;;;;;;4044244;29;19954;-49
2023/11/18 08:23:50;;;;;;;;;;;16.00;77.40;;;;;;4044006;29;20341;-51
2023/11/18 08:26:33;;;;;;;;;;;16.00;77.50;;;;;;4044535;29;19938;-51
2023/11/18 08:29:14;;;;;;;;;;;16.00;77.50;;;;;;4035592;29;20395;-51
2023/11/18 08:31:55;;;;;;;;;;;16.00;77.80;;;;;;4043278;29;20018;-49
2023/11/18 08:34:37;;;;;;;;;;;15.90;78.00;;;;;;4037292;29;19934;-49
2023/11/18 08:37:18;;;;;;;;;;;15.90;78.30;;;;;;4027512;29;19985;-50
2023/11/18 08:40:01;;;;;;;;;;;15.80;78.80;;;;;;4028724;29;19934;-52
2023/11/18 08:42:47;;;;;;;;;;;15.80;79.20;;;;;;4030116;29;19938;-48
2023/11/18 08:45:29;;;;;;;;;;;15.80;79.10;;;;;;4027367;29;19938;-51
2023/11/18 08:48:10;;;;;;;;;;;15.80;78.80;;;;;;4029125;29;19968;-49
2023/11/18 08:50:52;;;;;;;;;;;15.80;78.90;;;;;;4040100;29;19982;-48
2023/11/18 08:53:40;;;;;;;;;;;15.80;79.10;;;;;;4044171;29;19982;-47
2023/11/18 08:56:34;;;;;;;;;;;15.80;79.00;;;;;;4044164;29;20343;-49
2023/11/18 08:59:16;;;;;;;;;;;15.80;78.80;;;;;;4043510;29;20066;-49
2023/11/18 09:01:59;;;;;;;;;;;15.80;78.70;;;;;;4043870;29;19954;-51
2023/11/18 09:04:42;;;;;;;;;;;15.90;78.80;;;;;;4044009;29;20402;-49
2023/11/18 09:07:24;;;;;;;;;;;15.80;78.70;;;;;;4038244;29;19935;-52
2023/11/18 09:10:05;;;;;;;;;;;15.80;78.80;;;;;;4028152;29;20416;-52
2023/11/18 09:12:49;;;;;;;;;;;15.70;79.50;;;;;;4016837;29;19956;-49
2023/11/18 09:15:30;;;;;;;;;;;15.70;79.00;;;;;;4028438;29;20407;-49
2023/11/18 09:18:11;;;;;;;;;;;15.70;79.20;;;;;;4028020;29;19935;-49
2023/11/18 09:20:54;;;;;;;;;;;15.70;79.30;;;;;;4016166;29;19983;-48
2023/11/18 09:23:35;;;;;;;;;;;15.70;79.10;;;;;;4016152;29;19938;-53
2023/11/18 09:26:16;;;;;;;;;;;15.80;79.00;;;;;;4042590;29;19949;-49
2023/11/18 09:29:01;;;;;;;;;;;15.80;78.90;;;;;;4043842;29;19934;-49
2023/11/18 09:31:42;;;;;;;;;;;15.80;78.90;;;;;;4043156;29;20003;-51
2023/11/18 09:34:33;;;;;;;;;;;15.70;79.40;;;;;;4043335;29;19943;-48
2023/11/18 09:37:15;;;;;;;;;;;15.70;78.70;;;;;;4042897;29;19935;-48
2023/11/18 09:39:58;;;;;;;;;;;15.60;79.10;;;;;;4043440;29;19990;-49
2023/11/18 09:42:39;;;;;;;;;;;15.50;79.40;;;;;;4040089;29;19942;-50
2023/11/18 09:45:22;;;;;;;;;;;15.50;79.80;;;;;;4028201;29;19979;-50
2023/11/18 09:48:07;;;;;;;;;;;15.40;80.40;;;;;;4027788;29;20005;-50
2023/11/18 09:50:49;;;;;;;;;;;15.50;80.30;;;;;;4027642;29;20060;-49
2023/11/18 09:53:32;;;;;;;;;;;15.60;80.30;;;;;;4027786;29;19938;-53
2023/11/18 09:56:26;;;;;;;;;;;15.70;80.00;;;;;;4027790;29;20548;-49
2023/11/18 09:59:15;;;;;;;;;;;15.70;79.70;;;;;;4026426;29;19939;-48
2023/11/18 10:01:59;;;;;;;;;;;15.80;79.50;;;;;;4042295;29;19966;-49
2023/11/18 10:04:40;;;;;;;;;;;15.80;79.20;;;;;;4041107;29;19939;-50
2023/11/18 10:07:22;;;;;;;;;;;15.80;79.10;;;;;;4040505;29;19938;-48
2023/11/18 10:10:03;;;;;;;;;;;15.80;78.80;;;;;;4030933;29;20319;-48
2023/11/18 10:12:45;;;;;;;;;;;15.90;78.80;;;;;;4032116;29;19938;-49
2023/11/18 10:15:27;;;;;;;;;;;15.90;78.90;;;;;;4043245;29;20009;-51
2023/11/18 10:18:21;;;;;;;;;;;15.90;79.00;;;;;;4042971;29;20394;-48
2023/11/18 10:21:03;;;;;;;;;;;16.00;79.00;;;;;;4039059;29;19939;-50
2023/11/18 10:23:59;;;;;;;;;;;16.10;78.50;;;;;;4015740;29;19938;-49
2023/11/18 10:26:41;;;;;;;;;;;16.20;78.20;;;;;;4026173;29;20076;-49
2023/11/18 10:29:22;;;;;;;;;;;16.30;77.80;;;;;;4027109;29;20339;-48
2023/11/18 10:32:09;;;;;;;;;;;16.50;77.00;;;;;;4027631;29;19934;-52
2023/11/18 10:34:53;;;;;;;;;;;16.60;76.50;;;;;;4026111;29;20279;-52
2023/11/18 10:37:39;;;;;;;;;;;16.70;75.80;;;;;;4031903;29;19939;-51
2023/11/18 10:40:24;;;;;;;;;;;16.80;76.20;;;;;;4049249;29;19934;-49
2023/11/18 10:43:09;;;;;;;;;;;16.80;75.00;;;;;;4026143;29;19939;-51
2023/11/18 10:45:50;;;;;;;;;;;16.80;74.70;;;;;;4027035;29;19934;-51
2023/11/18 10:48:31;;;;;;;;;;;16.90;74.90;;;;;;4026845;29;19935;-51
2023/11/18 10:51:15;;;;;;;;;;;16.90;74.50;;;;;;4027017;29;19974;-48
2023/11/18 10:53:58;;;;;;;;;;;16.90;74.40;;;;;;4027138;29;20284;-49
2023/11/18 10:56:46;;;;;;;;;;;16.80;74.50;;;;;;4020060;29;20030;-48
2023/11/18 10:59:27;;;;;;;;;;;16.90;74.60;;;;;;4031130;29;19935;-53
2023/11/18 11:02:23;;;;;;;;;;;16.80;74.40;;;;;;4042330;29;20075;-52
2023/11/18 11:05:04;;;;;;;;;;;16.80;74.60;;;;;;4030125;29;19946;-50
2023/11/18 11:07:48;;;;;;;;;;;16.70;74.80;;;;;;4041492;29;20383;-49
2023/11/18 11:10:30;;;;;;;;;;;16.70;75.20;;;;;;4041598;29;19987;-51
2023/11/18 11:13:12;;;;;;;;;;;16.60;75.60;;;;;;4042195;29;20066;-52
2023/11/18 11:15:53;;;;;;;;;;;16.50;76.10;;;;;;4039878;29;19943;-51
2023/11/18 11:18:41;;;;;;;;;;;16.40;76.50;;;;;;4039657;29;19939;-49
2023/11/18 11:21:24;;;;;;;;;;;16.50;76.50;;;;;;4027001;29;19984;-50
2023/11/18 11:24:12;;;;;;;;;;;16.50;76.10;;;;;;4030405;29;19958;-53
2023/11/18 11:27:02;;;;;;;;;;;16.50;76.10;;;;;;4041188;29;19987;-50
2023/11/18 11:29:48;;;;;;;;;;;16.60;75.90;;;;;;4041895;29;20030;-50
2023/11/18 11:32:30;;;;;;;;;;;16.70;75.70;;;;;;4030551;29;20394;-52
2023/11/18 11:35:18;;;;;;;;;;;16.70;75.70;;;;;;4042261;29;19938;-52
2023/11/18 11:38:03;;;;;;;;;;;16.70;75.60;;;;;;4041424;29;19939;-50
2023/11/18 11:40:46;;;;;;;;;;;16.70;75.90;;;;;;4042644;29;19938;-51
2023/11/18 11:43:27;;;;;;;;;;;16.70;75.90;;;;;;4026799;29;20036;-52
2023/11/18 11:46:10;;;;;;;;;;;16.70;75.90;;;;;;4023191;29;19935;-52
2023/11/18 11:48:53;;;;;;;;;;;16.60;76.00;;;;;;4029897;29;19939;-52
2023/11/18 11:51:37;;;;;;;;;;;16.60;76.30;;;;;;4043713;29;20374;-49
2023/11/18 11:54:21;;;;;;;;;;;16.50;76.70;;;;;;4037064;29;19970;-48
2023/11/18 11:57:05;;;;;;;;;;;16.50;76.90;;;;;;4029807;29;19935;-50
2023/11/18 11:59:56;;;;;;;;;;;16.50;77.00;;;;;;4029546;29;19939;-50
2023/11/18 12:02:40;;;;;;;;;;;16.50;76.60;;;;;;4029130;29;19935;-49
2023/11/18 12:05:25;;;;;;;;;;;16.50;76.60;;;;;;4029344;29;19934;-49
2023/11/18 12:08:12;;;;;;;;;;;16.60;76.40;;;;;;4029387;29;20448;-48
2023/11/18 12:10:55;;;;;;;;;;;16.60;76.30;;;;;;4017767;29;19983;-48
2023/11/18 12:13:44;;;;;;;;;;;16.60;76.30;;;;;;4040480;29;20059;-50
2023/11/18 12:16:49;;;;;;;;;;;16.60;76.60;;;;;;4038477;29;19938;-48
2023/11/18 12:19:30;;;;;;;;;;;16.60;76.60;;;;;;4029200;29;19998;-48
2023/11/18 12:22:17;;;;;;;;;;;16.60;76.60;;;;;;4039216;29;19936;-47
2023/11/18 12:25:30;;;;;;;;;;;16.50;77.10;;;;;;4029217;29;20385;-48
2023/11/18 12:28:11;;;;;;;;;;;16.50;77.60;;;;;;4035744;29;19940;-53
2023/11/18 12:30:55;;;;;;;;;;;16.40;78.10;;;;;;4033867;29;19938;-54
2023/11/18 12:34:02;;;;;;;;;;;16.30;78.80;;;;;;4028420;29;20395;-54
2023/11/18 12:36:50;;;;;;;;;;;16.30;79.60;;;;;;4028022;29;19938;-52
2023/11/18 12:39:50;;;;;;;;;;;16.30;79.60;;;;;;4029215;29;19935;-50
2023/11/18 12:42:45;;;;;;;;;;;16.30;79.60;;;;;;4028174;29;19934;-51
2023/11/18 12:45:40;;;;;;;;;;;16.40;79.90;;;;;;4028544;29;20395;-49
2023/11/18 12:48:26;;;;;;;;;;;16.40;80.80;;;;;;4031691;29;19934;-47
2023/11/18 12:51:10;;;;;;;;;;;16.40;79.50;;;;;;4044792;29;20017;-50
2023/11/18 12:53:53;;;;;;;;;;;16.40;79.60;;;;;;4032482;29;19939;-48
2023/11/18 12:56:35;;;;;;;;;;;16.40;78.80;;;;;;4043905;29;19935;-49
2023/11/18 12:59:17;;;;;;;;;;;16.30;79.00;;;;;;4032424;29;19939;-48
2023/11/18 13:01:58;;;;;;;;;;;16.30;79.10;;;;;;4033051;29;19938;-50
2023/11/18 13:04:40;;;;;;;;;;;16.30;79.50;;;;;;4040830;29;19938;-50
2023/11/18 13:07:21;;;;;;;;;;;16.30;79.30;;;;;;4043281;29;19986;-49
2023/11/18 13:10:04;;;;;;;;;;;16.40;79.10;;;;;;4043735;29;19938;-49
2023/11/18 13:12:47;;;;;;;;;;;16.40;78.80;;;;;;4040110;29;19938;-50
2023/11/18 13:15:28;;;;;;;;;;;16.40;78.60;;;;;;4027828;29;19935;-49
2023/11/18 13:18:10;;;;;;;;;;;16.50;79.40;;;;;;4028388;29;19935;-54
2023/11/18 13:20:58;;;;;;;;;;;16.50;78.30;;;;;;4037352;29;19935;-54
2023/11/18 13:23:39;;;;;;;;;;;16.50;78.10;;;;;;4021315;29;20304;-54
2023/11/18 13:26:20;;;;;;;;;;;16.50;78.10;;;;;;4027124;29;19990;-57
2023/11/18 13:29:02;;;;;;;;;;;16.50;78.20;;;;;;4032530;29;19934;-57
2023/11/18 13:31:43;;;;;;;;;;;16.50;78.40;;;;;;4028746;29;20352;-55
2023/11/18 13:34:24;;;;;;;;;;;16.50;78.50;;;;;;4042591;29;20031;-52
2023/11/18 13:37:07;;;;;;;;;;;16.50;78.40;;;;;;4043395;29;19938;-50
2023/11/18 13:39:54;;;;;;;;;;;16.60;78.50;;;;;;4043820;29;19954;-53
2023/11/18 13:42:37;;;;;;;;;;;16.60;78.40;;;;;;4042518;29;19956;-50
2023/11/18 13:45:19;;;;;;;;;;;16.70;78.20;;;;;;4043223;29;19935;-56
2023/11/18 13:48:09;;;;;;;;;;;16.90;77.50;;;;;;4043465;29;19942;-54
2023/11/18 13:50:50;;;;;;;;;;;17.30;76.40;;;;;;4043709;29;19974;-57
2023/11/18 13:53:33;;;;;;;;;;;17.60;75.20;;;;;;4033920;29;20073;-57
2023/11/18 13:56:15;;;;;;;;;;;18.00;73.70;;;;;;4028126;29;20406;-57
2023/11/18 13:58:55;;;;;;;;;;;18.30;72.50;;;;;;4027099;29;20402;-57
2023/11/18 14:01:37;;;;;;;;;;;18.60;71.50;;;;;;4027452;29;19935;-56
2023/11/18 14:04:18;;;;;;;;;;;18.80;70.40;;;;;;4027516;29;19938;-57
2023/11/18 14:06:59;;;;;;;;;;;19.00;69.60;;;;;;4027070;29;19938;-56
2023/11/18 14:09:41;;;;;;;;;;;19.00;69.00;;;;;;4027723;29;20018;-57
2023/11/18 14:12:22;;;;;;;;;;;19.10;68.60;;;;;;4027421;29;19970;-57
2023/11/18 14:15:04;;;;;;;;;;;19.00;68.60;;;;;;4015450;29;19979;-57
2023/11/18 14:17:46;;;;;;;;;;;18.90;68.60;;;;;;4027213;29;19935;-56
2023/11/18 14:20:27;;;;;;;;;;;18.90;68.70;;;;;;4015699;29;19935;-57
2023/11/18 14:23:08;;;;;;;;;;;18.90;68.90;;;;;;4035213;29;20034;-57
2023/11/18 14:25:51;;;;;;;;;;;18.90;68.70;;;;;;4031037;29;19979;-57
2023/11/18 14:28:34;;;;;;;;;;;18.90;68.80;;;;;;4041878;29;19966;-56
2023/11/18 14:31:15;;;;;;;;;;;18.90;69.30;;;;;;4042482;29;19973;-57
2023/11/18 14:33:58;;;;;;;;;;;18.90;68.20;;;;;;4026781;29;20069;-57
2023/11/18 14:36:40;;;;;;;;;;;18.80;67.90;;;;;;4026514;29;19943;-57
2023/11/18 14:39:22;;;;;;;;;;;18.80;68.00;;;;;;4026647;29;20018;-56
2023/11/18 14:42:05;;;;;;;;;;;18.60;68.30;;;;;;4028089;29;19935;-55
2023/11/18 14:44:46;;;;;;;;;;;18.50;68.20;;;;;;4026649;29;19939;-55
2023/11/18 14:47:27;;;;;;;;;;;18.50;68.40;;;;;;4026145;29;20340;-55
2023/11/18 14:50:17;;;;;;;;;;;18.50;68.60;;;;;;4015223;29;19963;-54
2023/11/18 14:52:59;;;;;;;;;;;18.50;68.70;;;;;;4034691;29;20492;-54
2023/11/18 14:55:40;;;;;;;;;;;18.60;68.90;;;;;;4035605;29;19939;-56
2023/11/18 14:58:23;;;;;;;;;;;18.60;68.60;;;;;;4027555;29;19966;-56
2023/11/18 15:01:06;;;;;;;;;;;18.60;68.40;;;;;;4014349;29;19935;-52
2023/11/18 15:03:48;;;;;;;;;;;18.60;68.10;;;;;;4040775;29;19947;-50
2023/11/18 15:06:29;;;;;;;;;;;18.60;68.20;;;;;;4039848;29;20036;-52
2023/11/18 15:09:10;;;;;;;;;;;18.60;68.10;;;;;;4040794;29;20005;-54
2023/11/18 15:11:53;;;;;;;;;;;18.60;67.90;;;;;;4034855;29;19939;-55
2023/11/18 15:14:35;;;;;;;;;;;18.50;68.10;;;;;;4040004;29;20379;-51
2023/11/18 15:17:18;;;;;;;;;;;18.50;68.90;;;;;;4041837;29;20382;-51
2023/11/18 15:19:59;;;;;;;;;;;18.40;69.00;;;;;;4042139;29;20076;-51
2023/11/18 15:22:39;;;;;;;;;;;18.50;69.30;;;;;;4041800;29;19935;-50
2023/11/18 15:25:20;;;;;;;;;;;18.50;69.50;;;;;;4034966;29;19938;-52
2023/11/18 15:28:00;;;;;;;;;;;18.50;69.80;;;;;;4029640;29;19946;-50
2023/11/18 15:30:43;;;;;;;;;;;18.50;69.70;;;;;;4036550;29;19939;-50
2023/11/18 15:33:25;;;;;;;;;;;18.50;70.00;;;;;;4045426;29;20458;-50
2023/11/18 15:36:07;;;;;;;;;;;18.50;71.20;;;;;;4044708;29;20404;-52
2023/11/18 15:38:48;;;;;;;;;;;18.50;70.30;;;;;;4039637;29;20396;-53
2023/11/18 15:41:28;;;;;;;;;;;18.50;70.30;;;;;;4028806;29;19943;-57
2023/11/18 15:44:11;;;;;;;;;;;18.50;70.30;;;;;;4029187;29;19939;-54
2023/11/18 15:46:53;;;;;;;;;;;18.50;70.90;;;;;;4029591;29;20027;-55